Time;durP1;ratioP1;P1;durP2;ratioP2;P2;SDS_P1;SDS_P2;PMS_P1;PMS_P2;Temp;Humidity;BMP_temperature;BMP_pressure;BME280_temperature;BME280_humidity;BME280_pressure;Samples;Min_cycle;Max_cycle;Signal;HPM_P1;HPM_P2
2023/12/11 00:01:43;;;;;;;39.50;19.80;;;;;;;2.68;100.00;99626.15;104778;1268;99150;-75
2023/12/11 00:04:28;;;;;;;46.50;23.50;;;;;;;2.70;100.00;99624.60;104671;1271;98981;-75
2023/12/11 00:07:14;;;;;;;41.10;21.20;;;;;;;2.70;100.00;99624.01;104707;1265;95695;-76
2023/12/11 00:09:59;;;;;;;46.20;23.10;;;;;;;2.71;100.00;99620.54;104691;1265;95925;-76
2023/12/11 00:12:45;;;;;;;35.60;19.70;;;;;;;2.71;100.00;99619.69;104790;1268;98731;-75
2023/12/11 00:15:30;;;;;;;34.70;19.00;;;;;;;2.71;100.00;99616.35;104668;1268;99111;-75
2023/12/11 00:18:16;;;;;;;39.30;19.60;;;;;;;2.71;100.00;99615.39;104723;1264;98986;-76
2023/12/11 00:21:02;;;;;;;40.00;20.20;;;;;;;2.73;100.00;99616.82;104669;1268;95916;-74
2023/12/11 00:23:47;;;;;;;42.90;20.70;;;;;;;2.74;100.00;99618.77;104660;1268;95897;-74
2023/12/11 00:26:33;;;;;;;35.80;19.90;;;;;;;2.75;100.00;99617.66;104789;1268;100132;-75
2023/12/11 00:29:18;;;;;;;37.60;20.50;;;;;;;2.77;100.00;99615.21;104694;1268;99338;-75
2023/12/11 00:32:05;;;;;;;36.10;20.20;;;;;;;2.78;100.00;99612.94;104642;1264;98954;-75
2023/12/11 00:34:50;;;;;;;43.20;19.60;;;;;;;2.79;100.00;99608.90;104910;1268;95941;-74
2023/12/11 00:37:35;;;;;;;37.20;20.00;;;;;;;2.80;100.00;99605.13;104737;1270;95904;-74
2023/12/11 00:40:20;;;;;;;33.50;20.50;;;;;;;2.82;100.00;99600.59;104659;1268;99987;-74
2023/12/11 00:43:06;;;;;;;30.80;18.20;;;;;;;2.83;100.00;99601.81;104736;1268;99668;-74
2023/12/11 00:45:52;;;;;;;43.40;20.70;;;;;;;2.85;100.00;99599.49;104667;1268;97730;-74
2023/12/11 00:48:37;;;;;;;40.50;20.90;;;;;;;2.86;100.00;99602.95;104642;1268;95881;-75
2023/12/11 00:51:23;;;;;;;37.70;18.80;;;;;;;2.87;100.00;99596.80;104829;1265;97129;-75
2023/12/11 00:54:08;;;;;;;41.00;20.80;;;;;;;2.88;100.00;99595.13;104641;1268;98662;-74
2023/12/11 00:56:54;;;;;;;33.70;18.30;;;;;;;2.88;100.00;99589.09;104789;1266;100386;-75
2023/12/11 00:59:39;;;;;;;37.30;18.00;;;;;;;2.88;100.00;99586.84;105021;1268;97748;-75
2023/12/11 01:02:25;;;;;;;31.90;19.20;;;;;;;2.88;100.00;99582.09;104871;1265;96803;-74
2023/12/11 01:05:11;;;;;;;32.90;17.90;;;;;;;2.88;100.00;99585.02;104734;1266;95920;-74
2023/12/11 01:07:58;;;;;;;35.10;18.80;;;;;;;2.89;100.00;99587.30;104704;1268;99367;-75
2023/12/11 01:10:43;;;;;;;34.60;18.00;;;;;;;2.88;100.00;99590.31;104723;1268;100067;-75
2023/12/11 01:13:28;;;;;;;32.90;18.80;;;;;;;2.90;100.00;99594.39;104678;1266;97734;-75
2023/12/11 01:16:14;;;;;;;34.80;18.80;;;;;;;2.91;100.00;99593.36;104927;1268;98875;-74
2023/12/11 01:18:59;;;;;;;37.50;18.60;;;;;;;2.92;100.00;99584.80;104851;1268;97269;-74
2023/12/11 01:21:45;;;;;;;38.10;19.00;;;;;;;2.93;100.00;99588.23;104710;1263;100006;-74
2023/12/11 01:24:31;;;;;;;30.10;17.50;;;;;;;2.94;100.00;99590.10;104802;1265;99099;-73
2023/12/11 01:27:16;;;;;;;33.60;18.80;;;;;;;2.95;100.00;99588.05;104667;1265;98724;-74
2023/12/11 01:30:02;;;;;;;34.10;18.00;;;;;;;2.95;100.00;99584.11;104733;1268;97387;-74
2023/12/11 01:32:47;;;;;;;33.70;17.30;;;;;;;2.95;100.00;99578.26;104684;1268;97795;-75
2023/12/11 01:35:34;;;;;;;35.50;18.40;;;;;;;2.96;100.00;99578.55;104696;1265;100025;-74
2023/12/11 01:38:19;;;;;;;36.20;18.50;;;;;;;2.96;100.00;99572.92;104721;1265;100287;-74
2023/12/11 01:41:05;;;;;;;35.60;17.30;;;;;;;2.95;100.00;99570.15;104769;1268;97907;-74
2023/12/11 01:43:55;;;;;;;30.50;16.90;;;;;;;2.95;100.00;99567.20;104765;1268;96538;-74
2023/12/11 01:46:40;;;;;;;32.30;17.60;;;;;;;2.95;100.00;99562.98;104940;1268;96547;-74
2023/12/11 01:49:26;;;;;;;31.70;16.30;;;;;;;2.95;100.00;99560.63;104731;1268;101365;-75
2023/12/11 01:52:12;;;;;;;31.90;16.50;;;;;;;2.95;100.00;99556.56;104656;1269;99742;-74
2023/12/11 01:54:57;;;;;;;31.10;16.20;;;;;;;2.95;100.00;99557.46;104764;1266;97710;-74
2023/12/11 01:57:43;;;;;;;29.90;15.70;;;;;;;2.96;100.00;99552.13;104688;1266;97237;-74
2023/12/11 02:00:29;;;;;;;30.30;16.20;;;;;;;2.96;100.00;99549.33;104683;1279;98316;-75
2023/12/11 02:03:15;;;;;;;27.00;15.60;;;;;;;2.95;100.00;99548.17;104670;1265;100604;-74
2023/12/11 02:06:01;;;;;;;33.60;16.30;;;;;;;2.93;100.00;99539.17;104693;1268;100956;-75
2023/12/11 02:08:46;;;;;;;28.00;15.40;;;;;;;2.93;100.00;99534.12;104914;1267;99075;-75
2023/12/11 02:11:32;;;;;;;31.10;16.40;;;;;;;2.92;100.00;99529.42;105505;1256;96593;-75
2023/12/11 02:14:18;;;;;;;32.80;16.00;;;;;;;2.92;100.00;99531.17;105427;1258;97136;-75
2023/12/11 02:17:03;;;;;;;31.10;15.90;;;;;;;2.92;100.00;99527.14;105614;1257;101240;-74
2023/12/11 02:19:48;;;;;;;28.50;15.00;;;;;;;2.94;100.00;99522.55;105714;1254;100122;-75
2023/12/11 02:22:34;;;;;;;35.60;16.70;;;;;;;2.94;100.00;99513.52;105537;1257;99069;-74
2023/12/11 02:25:20;;;;;;;35.00;16.90;;;;;;;2.95;100.00;99513.09;105584;1259;96716;-75
2023/12/11 02:28:05;;;;;;;32.10;16.90;;;;;;;2.96;100.00;99505.75;105610;1257;96398;-74
2023/12/11 02:30:51;;;;;;;40.50;17.80;;;;;;;2.96;100.00;99497.76;105506;1254;101057;-75
2023/12/11 02:33:37;;;;;;;32.70;17.70;;;;;;;2.97;100.00;99488.33;105629;1258;99117;-73
2023/12/11 02:36:22;;;;;;;34.10;17.50;;;;;;;2.99;100.00;99484.26;105588;1253;97692;-74
2023/12/11 02:39:08;;;;;;;33.80;18.00;;;;;;;3.01;100.00;99485.86;105555;1260;97890;-74
2023/12/11 02:41:54;;;;;;;34.80;18.00;;;;;;;3.01;100.00;99477.15;105638;1258;98412;-74
2023/12/11 02:44:39;;;;;;;34.00;17.40;;;;;;;2.99;100.00;99472.35;105625;1255;108770;-74
2023/12/11 02:47:25;;;;;;;33.80;17.30;;;;;;;2.99;100.00;99484.79;105554;1253;99154;-74
2023/12/11 02:50:10;;;;;;;35.80;18.10;;;;;;;2.99;100.00;99480.06;105688;1258;99472;-74
2023/12/11 02:52:59;;;;;;;41.20;18.70;;;;;;;2.98;100.00;99476.52;105666;1257;96873;-74
2023/12/11 02:55:45;;;;;;;30.10;17.80;;;;;;;2.99;100.00;99471.86;105534;1257;97094;-74
2023/12/11 02:58:30;;;;;;;40.70;21.10;;;;;;;3.00;100.00;99473.19;105519;1256;100668;-73
2023/12/11 03:01:16;;;;;;;33.90;18.40;;;;;;;3.01;100.00;99481.55;105628;1256;100524;-74
2023/12/11 03:04:02;;;;;;;36.20;18.60;;;;;;;3.01;100.00;99487.90;105560;1257;97797;-74
2023/12/11 03:06:47;;;;;;;35.30;18.30;;;;;;;3.02;100.00;99486.71;105603;1254;96691;-74
2023/12/11 03:09:33;;;;;;;33.20;18.70;;;;;;;3.02;100.00;99477.59;105561;1258;97049;-73
2023/12/11 03:12:18;;;;;;;36.60;20.30;;;;;;;3.02;100.00;99473.02;105587;1257;101297;-74
2023/12/11 03:15:06;;;;;;;37.50;18.20;;;;;;;3.01;100.00;99474.27;105564;1256;99626;-74
2023/12/11 03:17:51;;;;;;;32.60;16.50;;;;;;;3.00;100.00;99471.56;105634;1256;97693;-74
2023/12/11 03:20:37;;;;;;;42.30;18.40;;;;;;;3.00;100.00;99463.81;105485;1254;97912;-74
2023/12/11 03:23:23;;;;;;;40.20;20.40;;;;;;;3.00;100.00;99458.36;105431;1266;96751;-74
2023/12/11 03:26:08;;;;;;;40.00;19.10;;;;;;;3.00;100.00;99452.19;105743;1258;100198;-74
2023/12/11 03:28:54;;;;;;;36.80;18.40;;;;;;;3.00;100.00;99449.02;105713;1252;99953;-74
2023/12/11 03:31:39;;;;;;;33.20;18.50;;;;;;;3.00;100.00;99445.51;105443;1256;97769;-74
2023/12/11 03:34:25;;;;;;;37.10;19.40;;;;;;;3.00;100.00;99437.38;105490;1257;97875;-74
2023/12/11 03:37:11;;;;;;;41.80;21.80;;;;;;;3.00;100.00;99435.95;105619;1254;97041;-75
2023/12/11 03:39:56;;;;;;;42.10;20.70;;;;;;;3.00;100.00;99441.21;105437;1259;100022;-74
2023/12/11 03:42:42;;;;;;;41.30;21.40;;;;;;;3.01;100.00;99438.30;105595;1258;100325;-74
2023/12/11 03:45:27;;;;;;;42.00;21.00;;;;;;;3.01;100.00;99432.91;105461;1259;97952;-74
2023/12/11 03:48:13;;;;;;;38.40;20.70;;;;;;;3.00;100.00;99433.45;105552;1259;96525;-74
2023/12/11 03:50:58;;;;;;;39.40;19.80;;;;;;;3.02;100.00;99427.85;105559;1258;96530;-75
2023/12/11 03:53:44;;;;;;;41.90;21.20;;;;;;;3.03;100.00;99422.60;105564;1255;101273;-74
2023/12/11 03:56:30;;;;;;;44.10;18.60;;;;;;;3.03;100.00;99414.66;105582;1258;99225;-75
2023/12/11 03:59:15;;;;;;;34.80;18.20;;;;;;;3.03;100.00;99406.56;105670;1257;107809;-74
2023/12/11 04:02:01;;;;;;;42.50;18.40;;;;;;;3.02;100.00;99391.34;105646;1255;96791;-75
2023/12/11 04:04:46;;;;;;;39.20;18.90;;;;;;;3.03;100.00;99390.39;105587;1255;97144;-74
2023/12/11 04:07:32;;;;;;;31.70;17.40;;;;;;;3.02;100.00;99396.24;105510;1256;99994;-74
2023/12/11 04:10:18;;;;;;;34.40;17.70;;;;;;;3.01;100.00;99387.95;105497;1254;99114;-74
2023/12/11 04:13:03;;;;;;;39.60;18.60;;;;;;;3.01;100.00;99387.95;105512;1257;99442;-74
2023/12/11 04:15:50;;;;;;;36.40;19.20;;;;;;;3.01;100.00;99383.48;105657;1257;96621;-75
2023/12/11 04:18:36;;;;;;;37.40;17.30;;;;;;;3.01;100.00;99381.23;105601;1259;97775;-74
2023/12/11 04:21:22;;;;;;;33.00;17.30;;;;;;;3.01;100.00;99382.06;105616;1254;101275;-74
2023/12/11 04:24:07;;;;;;;35.60;18.10;;;;;;;3.00;100.00;99379.69;105602;1266;99633;-75
2023/12/11 04:26:53;;;;;;;34.50;17.70;;;;;;;3.01;100.00;99376.94;105530;1257;98976;-76
2023/12/11 04:29:39;;;;;;;36.40;19.50;;;;;;;3.02;100.00;99378.79;105487;1269;96709;-74
2023/12/11 04:32:24;;;;;;;36.00;17.70;;;;;;;3.01;100.00;99381.94;105498;1256;96541;-75
2023/12/11 04:35:10;;;;;;;33.90;17.80;;;;;;;3.00;100.00;99382.86;105521;1257;101249;-74
2023/12/11 04:37:55;;;;;;;36.40;19.40;;;;;;;3.01;100.00;99389.31;105659;1259;100395;-74
2023/12/11 04:40:41;;;;;;;38.80;19.60;;;;;;;3.02;100.00;99381.06;105537;1254;97723;-73
2023/12/11 04:43:26;;;;;;;38.30;18.60;;;;;;;3.03;100.00;99377.62;105539;1260;97208;-74
2023/12/11 04:46:12;;;;;;;34.90;17.90;;;;;;;3.02;100.00;99380.23;105651;1254;97102;-74
2023/12/11 04:48:57;;;;;;;40.60;20.50;;;;;;;3.02;100.00;99381.75;105689;1257;100102;-74
2023/12/11 04:51:43;;;;;;;38.40;18.60;;;;;;;3.03;100.00;99383.77;105440;1254;99782;-74
2023/12/11 04:54:28;;;;;;;35.00;16.50;;;;;;;3.04;100.00;99390.59;105494;1266;97722;-74
2023/12/11 04:57:14;;;;;;;40.10;18.40;;;;;;;3.03;100.00;99403.15;105492;1254;96595;-74
2023/12/11 04:59:59;;;;;;;41.10;18.00;;;;;;;3.03;100.00;99403.21;105558;1260;96625;-74
2023/12/11 05:02:45;;;;;;;33.40;17.90;;;;;;;3.03;100.00;99410.02;105609;1254;101226;-75
2023/12/11 05:05:31;;;;;;;32.00;16.80;;;;;;;3.04;100.00;99413.50;105577;1258;99249;-75
2023/12/11 05:08:16;;;;;;;37.90;18.00;;;;;;;3.05;100.00;99414.30;105550;1258;98104;-74
2023/12/11 05:11:02;;;;;;;37.30;17.90;;;;;;;3.07;100.00;99413.56;105564;1266;96610;-75
2023/12/11 05:13:47;;;;;;;35.80;16.90;;;;;;;3.07;100.00;99411.23;105560;1255;96490;-74
2023/12/11 05:16:33;;;;;;;35.90;15.90;;;;;;;3.08;100.00;99403.70;105588;1257;99974;-74
2023/12/11 05:19:18;;;;;;;34.70;17.90;;;;;;;3.09;100.00;99399.73;105505;1257;99120;-74
2023/12/11 05:22:04;;;;;;;37.10;16.50;;;;;;;3.09;100.00;99394.80;105643;1257;97915;-74
2023/12/11 05:24:50;;;;;;;34.50;16.30;;;;;;;3.09;100.00;99391.75;105514;1265;96620;-74
2023/12/11 05:27:35;;;;;;;32.70;16.10;;;;;;;3.09;100.00;99390.18;105595;1259;97105;-74
2023/12/11 05:30:21;;;;;;;36.60;16.50;;;;;;;3.09;100.00;99390.17;105482;1257;101814;-74
2023/12/11 05:33:06;;;;;;;32.30;16.50;;;;;;;3.09;100.00;99391.73;105626;1253;99076;-74
2023/12/11 05:35:52;;;;;;;35.70;17.10;;;;;;;3.10;100.00;99387.30;105581;1266;97710;-74
2023/12/11 05:38:37;;;;;;;34.10;17.10;;;;;;;3.09;100.00;99380.63;105483;1260;96567;-74
2023/12/11 05:41:23;;;;;;;32.20;15.30;;;;;;;3.09;100.00;99378.34;105558;1266;96906;-74
2023/12/11 05:44:08;;;;;;;30.40;15.00;;;;;;;3.10;100.00;99375.02;105559;1254;100094;-75
2023/12/11 05:46:54;;;;;;;28.20;14.30;;;;;;;3.12;100.00;99368.64;105553;1258;99085;-74
2023/12/11 05:49:39;;;;;;;37.20;17.00;;;;;;;3.13;100.00;99365.00;105619;1257;97803;-74
2023/12/11 05:52:25;;;;;;;32.80;14.60;;;;;;;3.14;100.00;99364.96;105609;1254;96693;-74
2023/12/11 05:55:11;;;;;;;30.40;13.80;;;;;;;3.13;100.00;99364.27;105544;1254;97778;-75
2023/12/11 05:57:57;;;;;;;32.20;14.20;;;;;;;3.16;100.00;99360.56;105499;1254;101273;-75
2023/12/11 06:00:42;;;;;;;30.00;13.10;;;;;;;3.16;100.00;99360.46;105490;1257;99116;-75
2023/12/11 06:03:28;;;;;;;31.20;14.10;;;;;;;3.16;100.00;99356.46;105595;1256;98977;-75
2023/12/11 06:06:15;;;;;;;29.60;14.30;;;;;;;3.15;100.00;99350.38;105656;1257;96692;-75
2023/12/11 06:09:00;;;;;;;30.50;13.40;;;;;;;3.15;100.00;99342.77;105466;1254;97037;-74
2023/12/11 06:11:45;;;;;;;27.10;13.90;;;;;;;3.16;100.00;99340.19;105482;1254;99973;-74
2023/12/11 06:14:31;;;;;;;33.50;14.70;;;;;;;3.17;100.00;99333.10;105529;1256;99301;-75
2023/12/11 06:17:17;;;;;;;31.50;14.10;;;;;;;3.16;100.00;99323.98;105483;1257;98985;-75
2023/12/11 06:20:06;;;;;;;35.80;15.80;;;;;;;3.16;100.00;99321.20;105486;1259;97033;-74
2023/12/11 06:22:51;;;;;;;39.30;15.70;;;;;;;3.16;100.00;99318.16;105481;1257;96603;-74
2023/12/11 06:25:37;;;;;;;30.40;15.00;;;;;;;3.17;100.00;99313.27;105628;1256;101639;-74
2023/12/11 06:28:22;;;;;;;24.50;13.80;;;;;;;3.19;100.00;99320.38;105557;1255;99111;-74
2023/12/11 06:31:08;;;;;;;30.80;15.30;;;;;;;3.19;100.00;99323.73;105533;1254;98273;-74
2023/12/11 06:33:54;;;;;;;31.00;13.50;;;;;;;3.19;100.00;99322.30;105585;1257;96724;-74
2023/12/11 06:36:39;;;;;;;27.10;13.80;;;;;;;3.18;100.00;99311.45;105507;1260;97066;-74
2023/12/11 06:39:26;;;;;;;32.50;12.70;;;;;;;3.18;100.00;99302.82;105660;1258;101002;-74
2023/12/11 06:42:11;;;;;;;31.10;15.00;;;;;;;3.19;100.00;99303.36;105566;1257;100336;-74
2023/12/11 06:44:58;;;;;;;34.90;15.50;;;;;;;3.20;100.00;99302.58;105558;1254;97691;-74
2023/12/11 06:47:43;;;;;;;35.60;14.90;;;;;;;3.19;100.00;99299.10;105576;1254;97769;-74
2023/12/11 06:50:29;;;;;;;32.90;13.60;;;;;;;3.19;100.00;99292.13;105500;1254;97071;-74
2023/12/11 06:53:15;;;;;;;30.30;13.10;;;;;;;3.19;100.00;99287.13;105543;1254;101298;-75
2023/12/11 06:56:00;;;;;;;23.00;11.70;;;;;;;3.20;100.00;99285.14;105547;1257;99217;-74
2023/12/11 06:58:46;;;;;;;32.80;12.00;;;;;;;3.20;100.00;99287.27;105546;1257;99480;-74
2023/12/11 07:01:35;;;;;;;23.20;11.90;;;;;;;3.21;100.00;99285.64;105702;1258;97779;-75
2023/12/11 07:04:21;;;;;;;32.70;14.30;;;;;;;3.23;100.00;99285.59;105632;1261;95950;-74
2023/12/11 07:07:07;;;;;;;24.70;11.80;;;;;;;3.24;100.00;99275.91;105622;1257;101063;-76
2023/12/11 07:09:52;;;;;;;32.70;13.70;;;;;;;3.25;100.00;99270.73;105654;1254;99205;-74
2023/12/11 07:12:40;;;;;;;28.70;12.20;;;;;;;3.26;100.00;99267.48;105514;1253;98558;-75
2023/12/11 07:15:26;;;;;;;24.30;12.40;;;;;;;3.29;100.00;99263.84;105510;1254;96628;-75
2023/12/11 07:18:13;;;;;;;28.50;12.50;;;;;;;3.29;100.00;99259.33;105534;1257;96614;-75
2023/12/11 07:20:59;;;;;;;21.10;11.00;;;;;;;3.30;100.00;99261.67;105564;1254;101299;-75
2023/12/11 07:23:48;;;;;;;25.00;12.50;;;;;;;3.32;100.00;99261.52;105505;1260;100157;-76
2023/12/11 07:26:33;;;;;;;28.30;12.50;;;;;;;3.33;100.00;99261.39;105414;1260;99061;-75
2023/12/11 07:29:19;;;;;;;32.60;12.10;;;;;;;3.32;100.00;99260.65;105568;1257;96547;-74
2023/12/11 07:32:05;;;;;;;28.70;11.20;;;;;;;3.30;100.00;99259.06;105584;1257;98231;-75
2023/12/11 07:34:51;;;;;;;20.50;10.50;;;;;;;3.29;100.00;99258.48;105604;1254;100662;-75
2023/12/11 07:37:40;;;;;;;23.50;10.40;;;;;;;3.29;100.00;99254.44;105615;1256;99069;-74
2023/12/11 07:40:25;;;;;;;26.80;11.10;;;;;;;3.30;100.00;99252.02;105528;1254;99087;-75
2023/12/11 07:43:11;;;;;;;24.90;10.80;;;;;;;3.30;100.00;99249.50;105789;1254;96616;-74
2023/12/11 07:45:57;;;;;;;31.00;11.50;;;;;;;3.31;100.00;99250.52;105643;1257;97062;-75
2023/12/11 07:48:43;;;;;;;18.80;10.80;;;;;;;3.31;100.00;99245.40;105772;1254;99991;-75
2023/12/11 07:51:28;;;;;;;20.60;9.60;;;;;;;3.31;100.00;99244.90;105727;1255;99998;-75
2023/12/11 07:54:14;;;;;;;24.90;10.00;;;;;;;3.31;100.00;99234.84;105710;1256;98202;-75
2023/12/11 07:56:59;;;;;;;28.90;10.80;;;;;;;3.31;100.00;99228.62;105621;1257;97267;-75
2023/12/11 07:59:45;;;;;;;27.10;11.40;;;;;;;3.32;100.00;99225.68;105688;1254;96520;-74
2023/12/11 08:02:30;;;;;;;23.00;10.70;;;;;;;3.34;100.00;99222.83;105922;1252;100496;-75
2023/12/11 08:05:16;;;;;;;18.90;11.00;;;;;;;3.39;100.00;99216.20;105730;1258;100755;-75
2023/12/11 08:08:01;;;;;;;103.60;45.00;;;;;;;3.43;100.00;99212.45;106106;1256;98739;-76
2023/12/11 08:10:47;;;;;;;37.20;17.40;;;;;;;3.42;100.00;99205.79;105555;1255;97329;-74
2023/12/11 08:13:33;;;;;;;36.60;14.00;;;;;;;3.41;100.00;99198.15;105584;1256;98213;-75
2023/12/11 08:16:19;;;;;;;35.90;14.10;;;;;;;3.41;100.00;99188.64;105556;1257;100003;-74
2023/12/11 08:19:05;;;;;;;36.20;17.00;;;;;;;3.42;100.00;99180.95;105766;1254;99220;-82
2023/12/11 08:21:51;;;;;;;31.60;13.70;;;;;;;3.41;100.00;99181.75;106535;1257;97706;-82
2023/12/11 08:24:37;;;;;;;29.60;13.10;;;;;;;3.41;100.00;99179.61;106291;1257;96602;-74
2023/12/11 08:27:23;;;;;;;24.70;12.30;;;;;;;3.41;100.00;99177.11;105567;1256;97205;-75
2023/12/11 08:30:09;;;;;;;26.80;11.60;;;;;;;3.42;100.00;99173.21;105748;1254;100695;-76
2023/12/11 08:32:54;;;;;;;28.20;12.20;;;;;;;3.42;100.00;99171.18;105762;1257;100310;-74
2023/12/11 08:35:40;;;;;;;26.50;12.30;;;;;;;3.43;100.00;99172.51;105653;1256;97897;-74
2023/12/11 08:38:26;;;;;;;24.10;11.10;;;;;;;3.45;100.00;99174.78;105583;1257;97225;-86
2023/12/11 08:41:13;;;;;;;25.80;12.60;;;;;;;3.45;100.00;99170.78;106785;1257;97039;-85
2023/12/11 08:43:59;;;;;;;22.40;11.70;;;;;;;3.44;100.00;99168.86;106392;1254;101690;-78
2023/12/11 08:46:44;;;;;;;25.40;11.60;;;;;;;3.44;100.00;99166.05;106187;1254;99938;-82
2023/12/11 08:49:30;;;;;;;18.00;10.70;;;;;;;3.44;100.00;99165.30;106572;1253;97806;-81
2023/12/11 08:52:15;;;;;;;24.30;10.70;;;;;;;3.45;100.00;99165.91;106553;1257;96607;-79
2023/12/11 08:55:00;;;;;;;19.00;10.40;;;;;;;3.46;100.00;99165.15;106165;1254;96610;-80
2023/12/11 08:57:46;;;;;;;22.10;10.60;;;;;;;3.48;100.00;99164.73;106161;1257;99970;-79
2023/12/11 09:00:31;;;;;;;24.00;11.30;;;;;;;3.49;100.00;99163.77;106248;1254;99393;-79
2023/12/11 09:03:17;;;;;;;17.20;10.10;;;;;;;3.50;100.00;99162.66;106284;1254;98992;-80
2023/12/11 09:06:03;;;;;;;18.00;11.60;;;;;;;3.52;100.00;99161.80;106666;1254;96591;-79
2023/12/11 09:08:48;;;;;;;20.00;11.10;;;;;;;3.54;100.00;99153.80;106448;1256;97922;-79
2023/12/11 09:11:34;;;;;;;19.80;10.00;;;;;;;3.56;100.00;99148.63;106175;1256;100592;-82
2023/12/11 09:14:19;;;;;;;20.90;9.80;;;;;;;3.58;100.00;99150.95;106587;1254;100135;-85
2023/12/11 09:17:05;;;;;;;18.50;10.00;;;;;;;3.60;100.00;99143.16;106382;1255;97841;-80
2023/12/11 09:19:51;;;;;;;19.80;9.40;;;;;;;3.63;100.00;99137.39;106493;1257;96612;-81
2023/12/11 09:22:43;;;;;;;18.00;9.10;;;;;;;3.66;100.00;99134.11;106388;1254;97247;-81
2023/12/11 09:25:29;;;;;;;20.30;9.70;;;;;;;3.70;100.00;99130.33;106895;1254;100053;-74
2023/12/11 09:28:15;;;;;;;19.40;9.60;;;;;;;3.73;100.00;99126.84;105578;1256;99152;-74
2023/12/11 09:31:00;;;;;;;17.70;10.10;;;;;;;3.75;100.00;99122.48;105596;1254;98117;-74
2023/12/11 09:33:46;;;;;;;22.60;13.60;;;;;;;3.77;100.00;99121.86;105614;1256;96686;-88
2023/12/11 09:36:32;;;;;;;20.10;9.90;;;;;;;3.78;100.00;99116.13;106648;1256;96728;-86
2023/12/11 09:39:18;;;;;;;22.10;12.10;;;;;;;3.79;100.00;99110.02;106302;1253;101778;-85
2023/12/11 09:42:05;;;;;;;24.30;12.00;;;;;;;3.80;100.00;99107.41;106211;1258;99145;-82
2023/12/11 09:44:52;;;;;;;22.30;9.30;;;;;;;3.82;100.00;99105.11;106462;1254;98395;-86
2023/12/11 09:47:43;;;;;;;22.30;11.50;;;;;;;3.82;100.00;99108.05;106167;1253;96519;-79
2023/12/11 09:50:29;;;;;;;23.90;10.60;;;;;;;3.83;100.00;99101.95;106354;1253;96594;-82
2023/12/11 09:53:17;;;;;;;18.80;9.30;;;;;;;3.84;100.00;99096.88;106429;1254;100342;-78
2023/12/11 09:56:04;;;;;;;15.90;8.90;;;;;;;3.85;100.00;99095.67;105994;1254;100442;-78
2023/12/11 09:58:50;;;;;;;23.40;12.80;;;;;;;3.86;100.00;99094.58;106278;1257;97754;-79
2023/12/11 10:01:35;;;;;;;20.60;9.80;;;;;;;3.87;100.00;99094.02;106252;1254;96513;-78
2023/12/11 10:04:21;;;;;;;21.20;11.20;;;;;;;3.88;100.00;99091.81;105734;1255;97122;-76
2023/12/11 10:07:06;;;;;;;19.50;10.20;;;;;;;3.90;100.00;99092.81;105736;1254;100529;-77
2023/12/11 10:09:52;;;;;;;29.90;14.70;;;;;;;3.92;100.00;99087.70;105872;1257;99288;-76
2023/12/11 10:12:40;;;;;;;19.60;11.90;;;;;;;3.93;100.00;99082.29;105790;1255;97826;-77
2023/12/11 10:15:30;;;;;;;16.20;10.20;;;;;;;3.94;100.00;99083.70;106061;1257;96563;-80
2023/12/11 10:18:16;;;;;;;19.30;10.30;;;;;;;3.98;100.00;99080.41;107068;1254;98546;-79
2023/12/11 10:21:02;;;;;;;26.40;19.50;;;;;;;4.02;100.00;99080.18;106493;1253;99981;-79
2023/12/11 10:24:02;;;;;;;21.20;12.00;;;;;;;4.05;100.00;99071.14;106261;1253;99831;-80
2023/12/11 10:26:55;;;;;;;19.00;10.30;;;;;;;4.07;100.00;99067.27;106506;1255;99271;-81
2023/12/11 10:29:41;;;;;;;28.70;16.00;;;;;;;4.09;100.00;99068.86;106137;1254;96614;-80
2023/12/11 10:32:28;;;;;;;21.70;12.70;;;;;;;4.10;100.00;99072.44;106303;1254;96574;-78
2023/12/11 10:35:23;;;;;;;32.30;21.10;;;;;;;4.13;100.00;99068.72;106138;1256;100091;-79
2023/12/11 10:38:08;;;;;;;26.60;14.10;;;;;;;4.15;100.00;99067.87;106001;1258;100186;-77
2023/12/11 10:40:55;;;;;;;20.30;12.20;;;;;;;4.18;100.00;99060.81;105855;1253;97844;-77
2023/12/11 10:43:42;;;;;;;29.50;19.00;;;;;;;4.21;100.00;99060.52;105805;1253;97470;-78
2023/12/11 10:46:27;;;;;;;24.80;13.30;;;;;;;4.23;100.00;99062.39;105758;1258;96718;-78
2023/12/11 10:49:14;;;;;;;26.30;14.00;;;;;;;4.25;100.00;99061.59;105891;1253;101304;-82
2023/12/11 10:52:02;;;;;;;46.20;25.70;;;;;;;4.28;100.00;99057.34;106508;1258;100448;-85
2023/12/11 10:54:48;;;;;;;27.20;15.70;;;;;;;4.31;100.00;99053.64;106569;1253;97802;-81
2023/12/11 10:57:35;;;;;;;25.20;12.90;;;;;;;4.35;100.00;99046.52;107012;1254;96942;-80
2023/12/11 11:00:21;;;;;;;40.50;19.50;;;;;;;4.41;100.00;99043.85;107124;1252;96547;-80
2023/12/11 11:03:10;;;;;;;40.60;19.90;;;;;;;4.46;100.00;99047.67;107058;1256;101449;-77
2023/12/11 11:05:57;;;;;;;29.50;17.40;;;;;;;4.49;100.00;99047.30;106501;1256;101421;-84
2023/12/11 11:09:00;;;;;;;22.00;12.00;;;;;;;4.52;100.00;99043.91;106351;1253;97805;-80
2023/12/11 11:11:53;;;;;;;25.20;11.80;;;;;;;4.57;100.00;99043.36;106530;1254;96516;-80
2023/12/11 11:14:48;;;;;;;20.40;10.30;;;;;;;4.61;100.00;99043.36;106945;1253;96592;-80
2023/12/11 11:18:05;;;;;;;20.60;11.60;;;;;;;4.65;100.00;99042.67;106847;1256;100003;-80
2023/12/11 11:21:11;;;;;;;22.90;11.80;;;;;;;4.67;100.00;99040.66;107042;1256;100860;-80
2023/12/11 11:23:57;;;;;;;22.90;11.60;;;;;;;4.68;100.00;99037.86;106825;1255;97877;-82
2023/12/11 11:26:42;;;;;;;26.00;11.80;;;;;;;4.72;100.00;99035.86;106592;1253;96677;-80
2023/12/11 11:29:44;;;;;;;23.00;12.00;;;;;;;4.75;100.00;99037.16;106878;1254;96642;-80
2023/12/11 11:32:53;;;;;;;21.30;12.10;;;;;;;4.75;100.00;99032.34;106915;1253;100056;-84
2023/12/11 11:35:45;;;;;;;18.80;11.40;;;;;;;4.73;100.00;99031.30;106330;1253;100251;-82
2023/12/11 11:38:55;;;;;;;20.90;10.80;;;;;;;4.72;100.00;99027.86;106599;1258;97784;-76
2023/12/11 11:41:43;;;;;;;42.70;21.80;;;;;;;4.73;100.00;99029.14;106341;1252;96553;-84
2023/12/11 11:44:34;;;;;;;43.60;25.30;;;;;;;4.74;100.00;99031.85;106552;1258;97008;-84
2023/12/11 11:47:20;;;;;;;27.50;15.00;;;;;;;4.77;100.00;99029.79;106424;1253;100096;-86
2023/12/11 11:50:11;;;;;;;32.10;17.30;;;;;;;4.82;100.00;99028.63;106537;1260;100132;-85
2023/12/11 11:53:12;;;;;;;25.20;14.60;;;;;;;4.88;100.00;99028.36;106256;1253;98711;-76
2023/12/11 11:56:01;;;;;;;19.90;11.30;;;;;;;4.94;100.00;99024.59;105622;1254;96604;-76
2023/12/11 11:58:46;;;;;;;20.20;10.60;;;;;;;4.98;100.00;99022.86;105684;1254;96635;-77
2023/12/11 12:01:54;;;;;;;18.00;10.10;;;;;;;5.01;100.00;99021.98;105718;1259;100964;-76
2023/12/11 12:04:39;;;;;;;18.10;10.70;;;;;;;5.02;100.00;99022.38;108488;1253;99134;-77
2023/12/11 12:07:24;;;;;;;23.30;10.50;;;;;;;5.02;100.00;99020.46;108555;1253;97739;-77
2023/12/11 12:10:11;;;;;;;25.80;10.90;;;;;;;5.03;100.00;99021.17;108562;1254;94148;-76
2023/12/11 12:12:57;;;;;;;17.70;10.00;;;;;;;5.05;100.00;99014.89;108450;1253;94709;-77
2023/12/11 12:15:46;;;;;;;17.60;10.10;;;;;;;5.08;100.00;99009.21;105734;1257;101250;-75
2023/12/11 12:18:31;;;;;;;18.80;10.20;;;;;;;5.10;100.00;99005.63;105650;1256;101134;-76
2023/12/11 12:21:17;;;;;;;23.70;10.20;;;;;;;5.10;100.00;99005.55;106340;1257;98616;-76
2023/12/11 12:24:06;;;;;;;19.60;10.00;;;;;;;5.11;100.00;99002.48;105595;1256;96530;-75
2023/12/11 12:26:57;;;;;;;24.30;11.20;;;;;;;5.10;100.00;99003.84;108517;1253;94001;-76
2023/12/11 12:29:42;;;;;;;19.90;10.70;;;;;;;5.09;100.00;99003.91;106123;1258;100014;-76
2023/12/11 12:32:28;;;;;;;19.40;11.90;;;;;;;5.08;100.00;99006.36;105664;1253;100504;-75
2023/12/11 12:35:15;;;;;;;20.00;10.60;;;;;;;5.09;100.00;99004.64;105579;1253;97713;-75